TTW606 RCTP-RKPK
Flight info
| Callsign | TTW606 |
|---|---|
| Flight time | N/A |
| Altitude | 35000 |
| Route | PIANO1C PIANO L3 SALMI Y743 BOLUT Y741 ATOTI Y722 SOSDO Y571 ANROD KEVOX3 |
| Aircraft | A320/M-SDE3FGHIRWY/LB1 |
Departure
| Time | 2026-05-04 11:31 |
|---|---|
| Airport | Taiwan Taoyuan International Airport (RCTP) |
Arrival
| Time | N/A |
|---|---|
| Airport | Gimhae International Airport (RKPK) |
| Time | Latitude | Longitude | Altitude | Speed | Heading |
|---|---|---|---|---|---|
| 2026-05-04 10:58 | 25.07893 | 121.23055 | 101 ft | 0 kts | 139° |
| 2026-05-04 11:08 | 25.07910 | 121.23040 | 99 ft | 4 kts | 139° |
| 2026-05-04 11:10 | 25.08011 | 121.23003 | 101 ft | 0 kts | 229° |
| 2026-05-04 11:19 | 25.07980 | 121.22963 | 83 ft | 9 kts | 229° |
| 2026-05-04 11:19 | 25.07933 | 121.22904 | 101 ft | 10 kts | 229° |
| 2026-05-04 11:19 | 25.07888 | 121.22847 | 99 ft | 9 kts | 229° |
| 2026-05-04 11:19 | 25.07853 | 121.22802 | 101 ft | 7 kts | 229° |
| 2026-05-04 11:20 | 25.07817 | 121.22755 | 101 ft | 9 kts | 229° |
| 2026-05-04 11:20 | 25.07776 | 121.22703 | 89 ft | 9 kts | 229° |
| 2026-05-04 11:20 | 25.07730 | 121.22645 | 101 ft | 10 kts | 229° |
| 2026-05-04 11:20 | 25.07688 | 121.22591 | 101 ft | 9 kts | 229° |
| 2026-05-04 11:22 | 25.07255 | 121.22169 | 101 ft | 8 kts | 139° |
| 2026-05-04 11:22 | 25.07208 | 121.22215 | 100 ft | 10 kts | 139° |
| 2026-05-04 11:23 | 25.07155 | 121.22264 | 101 ft | 10 kts | 140° |
| 2026-05-04 11:23 | 25.07100 | 121.22316 | 101 ft | 11 kts | 139° |
| 2026-05-04 11:24 | 25.06790 | 121.22610 | 100 ft | 11 kts | 140° |
| 2026-05-04 11:25 | 25.06723 | 121.22672 | 100 ft | 13 kts | 139° |
| 2026-05-04 11:25 | 25.06659 | 121.22730 | 100 ft | 10 kts | 152° |
| 2026-05-04 11:25 | 25.06606 | 121.22697 | 99 ft | 9 kts | 229° |
| 2026-05-04 11:26 | 25.06510 | 121.22575 | 100 ft | 13 kts | 229° |
| 2026-05-04 11:27 | 25.06168 | 121.22285 | 98 ft | 1 kts | 138° |
| 2026-05-04 11:28 | 25.06140 | 121.22312 | 97 ft | 9 kts | 138° |
| 2026-05-04 11:28 | 25.06087 | 121.22367 | 96 ft | 10 kts | 126° |
| 2026-05-04 11:28 | 25.06106 | 121.22384 | 96 ft | 4 kts | 11° |
| 2026-05-04 11:28 | 25.06115 | 121.22394 | 96 ft | 0 kts | 51° |
| 2026-05-04 11:31 | 25.10110 | 121.27536 | 1798 ft | 207 kts | 54° |
| 2026-05-04 11:33 | 25.21835 | 121.28553 | 7273 ft | 290 kts | 355° |
| 2026-05-04 11:33 | 25.23195 | 121.28539 | 7846 ft | 292 kts | 355° |
| 2026-05-04 11:33 | 25.25923 | 121.28527 | 8925 ft | 297 kts | 354° |
| 2026-05-04 11:34 | 25.28002 | 121.28507 | 9752 ft | 301 kts | 353° |
| 2026-05-04 11:34 | 25.30121 | 121.28463 | 10328 ft | 312 kts | 352° |
| 2026-05-04 11:34 | 25.32371 | 121.28389 | 10528 ft | 335 kts | 352° |
| 2026-05-04 11:34 | 25.33945 | 121.28331 | 10746 ft | 346 kts | 353° |
| 2026-05-04 11:35 | 25.36388 | 121.28552 | 11337 ft | 360 kts | 7° |
| 2026-05-04 11:35 | 25.38791 | 121.29457 | 11988 ft | 372 kts | 22° |
| 2026-05-04 11:35 | 25.41610 | 121.31705 | 12832 ft | 386 kts | 43° |
| 2026-05-04 11:35 | 25.43396 | 121.33958 | 13464 ft | 392 kts | 46° |
| 2026-05-04 11:36 | 25.44600 | 121.35506 | 13887 ft | 395 kts | 46° |
| 2026-05-04 11:36 | 25.46404 | 121.37820 | 14432 ft | 399 kts | 46° |
| 2026-05-04 11:36 | 25.48204 | 121.40124 | 14951 ft | 403 kts | 46° |
| 2026-05-04 11:36 | 25.50053 | 121.42483 | 15479 ft | 407 kts | 45° |
| 2026-05-04 11:37 | 25.51921 | 121.44865 | 16027 ft | 412 kts | 45° |
| 2026-05-04 11:37 | 25.53803 | 121.47269 | 16556 ft | 416 kts | 45° |
| 2026-05-04 11:37 | 25.55712 | 121.49708 | 17038 ft | 421 kts | 45° |
| 2026-05-04 11:37 | 25.57640 | 121.52175 | 17537 ft | 426 kts | 45° |
| 2026-05-04 11:38 | 25.59587 | 121.54668 | 18040 ft | 430 kts | 45° |
| 2026-05-04 11:38 | 25.61550 | 121.57186 | 18526 ft | 434 kts | 45° |
| 2026-05-04 11:38 | 25.63508 | 121.59701 | 18959 ft | 438 kts | 45° |
| 2026-05-04 11:38 | 25.65506 | 121.62268 | 19411 ft | 441 kts | 45° |
| 2026-05-04 11:39 | 25.67520 | 121.64854 | 19868 ft | 445 kts | 45° |
| 2026-05-04 11:39 | 25.69547 | 121.67457 | 20328 ft | 448 kts | 45° |
| 2026-05-04 11:40 | 25.82299 | 121.83091 | 22948 ft | 459 kts | 31° |
| 2026-05-04 11:41 | 25.84885 | 121.85176 | 23356 ft | 460 kts | 30° |
| 2026-05-04 11:41 | 25.87491 | 121.87265 | 23766 ft | 464 kts | 30° |
| 2026-05-04 11:41 | 25.90111 | 121.89372 | 24098 ft | 467 kts | 30° |
| 2026-05-04 11:41 | 25.92741 | 121.91495 | 24440 ft | 470 kts | 30° |
| 2026-05-04 11:42 | 25.95390 | 121.93642 | 24797 ft | 473 kts | 30° |
| 2026-05-04 11:42 | 25.98060 | 121.95808 | 25071 ft | 477 kts | 30° |
| 2026-05-04 11:42 | 26.00716 | 121.97965 | 25378 ft | 481 kts | 30° |
| 2026-05-04 11:42 | 26.03424 | 122.00163 | 25709 ft | 484 kts | 30° |
| 2026-05-04 11:43 | 26.06161 | 122.02352 | 26057 ft | 486 kts | 29° |
| 2026-05-04 11:43 | 26.08928 | 122.04524 | 26388 ft | 488 kts | 29° |
| 2026-05-04 11:43 | 26.11726 | 122.06694 | 26709 ft | 491 kts | 28° |
| 2026-05-04 11:43 | 26.14533 | 122.08864 | 27052 ft | 493 kts | 29° |
| 2026-05-04 11:44 | 26.17356 | 122.11049 | 27405 ft | 495 kts | 29° |
| 2026-05-04 11:44 | 26.20196 | 122.13258 | 27663 ft | 500 kts | 29° |
| 2026-05-04 11:44 | 26.23052 | 122.15494 | 27976 ft | 504 kts | 29° |
| 2026-05-04 11:44 | 26.25925 | 122.17752 | 28290 ft | 507 kts | 29° |
| 2026-05-04 11:45 | 26.28810 | 122.20024 | 28625 ft | 509 kts | 29° |
| 2026-05-04 11:45 | 26.31714 | 122.22311 | 28957 ft | 512 kts | 29° |
| 2026-05-04 11:45 | 26.34595 | 122.24578 | 29283 ft | 515 kts | 29° |
| 2026-05-04 11:45 | 26.37530 | 122.26884 | 29610 ft | 518 kts | 29° |
| 2026-05-04 11:46 | 26.40485 | 122.29208 | 29932 ft | 522 kts | 29° |
| 2026-05-04 11:46 | 26.43463 | 122.31557 | 30209 ft | 526 kts | 29° |
| 2026-05-04 11:46 | 26.46456 | 122.33920 | 30475 ft | 529 kts | 29° |
| 2026-05-04 11:46 | 26.49466 | 122.36297 | 30764 ft | 530 kts | 29° |
| 2026-05-04 11:47 | 26.52479 | 122.38677 | 31064 ft | 532 kts | 29° |
| 2026-05-04 11:47 | 26.55504 | 122.41070 | 31418 ft | 532 kts | 29° |
| 2026-05-04 11:47 | 26.58518 | 122.43457 | 31849 ft | 531 kts | 29° |
| 2026-05-04 11:47 | 26.61530 | 122.45842 | 32274 ft | 531 kts | 28° |
| 2026-05-04 11:48 | 26.64508 | 122.48192 | 32625 ft | 532 kts | 28° |
| 2026-05-04 11:48 | 26.67534 | 122.50576 | 33010 ft | 531 kts | 28° |
| 2026-05-04 11:48 | 26.70549 | 122.52960 | 33420 ft | 531 kts | 28° |
| 2026-05-04 11:48 | 26.73562 | 122.55352 | 33837 ft | 531 kts | 28° |
| 2026-05-04 11:49 | 26.76569 | 122.57745 | 34247 ft | 530 kts | 27° |
| 2026-05-04 11:49 | 26.79567 | 122.60135 | 34619 ft | 529 kts | 27° |
| 2026-05-04 11:49 | 26.82565 | 122.62518 | 35011 ft | 528 kts | 27° |
| 2026-05-04 11:49 | 26.85564 | 122.64895 | 35150 ft | 528 kts | 27° |
| 2026-05-04 11:50 | 26.88564 | 122.67270 | 35186 ft | 528 kts | 27° |
| 2026-05-04 11:50 | 26.94504 | 122.71992 | 35182 ft | 527 kts | 27° |
| 2026-05-04 11:51 | 27.00478 | 122.76757 | 35182 ft | 527 kts | 27° |
| 2026-05-04 11:51 | 27.06453 | 122.81532 | 35182 ft | 527 kts | 27° |
| 2026-05-04 11:52 | 27.12420 | 122.86313 | 35185 ft | 527 kts | 27° |
| 2026-05-04 11:52 | 27.18337 | 122.91069 | 35184 ft | 526 kts | 27° |
| 2026-05-04 11:53 | 27.24248 | 122.95928 | 35213 ft | 528 kts | 30° |
| 2026-05-04 11:53 | 27.29931 | 123.01255 | 35186 ft | 535 kts | 34° |
| 2026-05-04 11:55 | 27.52403 | 123.23118 | 35187 ft | 534 kts | 33° |
| 2026-05-04 11:56 | 27.58061 | 123.28554 | 35189 ft | 535 kts | 33° |
| 2026-05-04 11:56 | 27.63711 | 123.34011 | 35233 ft | 535 kts | 33° |
| 2026-05-04 11:57 | 27.69346 | 123.39452 | 35185 ft | 539 kts | 33° |
| 2026-05-04 11:57 | 27.75044 | 123.44967 | 35189 ft | 540 kts | 33° |
| 2026-05-04 11:58 | 27.80740 | 123.50495 | 35194 ft | 540 kts | 33° |
| 2026-05-04 11:58 | 27.86445 | 123.56017 | 35185 ft | 541 kts | 33° |
| 2026-05-04 11:59 | 27.92167 | 123.61566 | 35190 ft | 542 kts | 33° |
| 2026-05-04 11:59 | 27.97846 | 123.67095 | 35188 ft | 543 kts | 33° |
| 2026-05-04 12:00 | 28.03562 | 123.72662 | 35220 ft | 542 kts | 33° |
| 2026-05-04 12:00 | 28.09285 | 123.78253 | 35194 ft | 544 kts | 33° |
| 2026-05-04 12:01 | 28.15011 | 123.83854 | 35195 ft | 544 kts | 33° |
| 2026-05-04 12:02 | 28.34357 | 124.04334 | 35195 ft | 561 kts | 49° |
| 2026-05-04 12:03 | 28.38993 | 124.11468 | 35197 ft | 561 kts | 48° |
| 2026-05-04 12:03 | 28.43626 | 124.18548 | 35186 ft | 563 kts | 48° |
| 2026-05-04 12:04 | 28.48307 | 124.25684 | 35197 ft | 563 kts | 48° |
| 2026-05-04 12:04 | 28.52974 | 124.32836 | 35193 ft | 563 kts | 48° |
| 2026-05-04 12:05 | 28.57639 | 124.40002 | 35238 ft | 563 kts | 48° |
| 2026-05-04 12:05 | 28.62277 | 124.47138 | 35195 ft | 565 kts | 48° |
| 2026-05-04 12:06 | 28.66940 | 124.54336 | 35192 ft | 564 kts | 48° |
| 2026-05-04 12:06 | 28.71587 | 124.61529 | 35194 ft | 564 kts | 48° |
| 2026-05-04 12:07 | 28.76807 | 124.68014 | 35191 ft | 547 kts | 30° |
| 2026-05-04 12:07 | 28.79863 | 124.70520 | 35192 ft | 536 kts | 21° |
| 2026-05-04 12:07 | 28.83062 | 124.72484 | 35193 ft | 523 kts | 12° |
| 2026-05-04 12:08 | 28.86409 | 124.73966 | 35173 ft | 512 kts | 6° |
| 2026-05-04 12:08 | 28.89777 | 124.75286 | 35196 ft | 512 kts | 7° |
| 2026-05-04 12:08 | 28.96508 | 124.77959 | 35193 ft | 512 kts | 7° |
| 2026-05-04 12:09 | 29.03233 | 124.80663 | 35193 ft | 513 kts | 7° |
| 2026-05-04 12:09 | 29.09916 | 124.83344 | 35193 ft | 512 kts | 7° |
| 2026-05-04 12:10 | 29.16648 | 124.86026 | 35223 ft | 512 kts | 7° |
| 2026-05-04 12:10 | 29.23386 | 124.88714 | 35194 ft | 513 kts | 7° |
| 2026-05-04 12:11 | 29.30133 | 124.91420 | 35193 ft | 514 kts | 7° |
| 2026-05-04 12:11 | 29.36835 | 124.94127 | 35193 ft | 514 kts | 7° |
| 2026-05-04 12:12 | 29.43567 | 124.96845 | 35187 ft | 512 kts | 7° |
| 2026-05-04 12:12 | 29.50294 | 124.99542 | 35158 ft | 512 kts | 7° |
| 2026-05-04 12:14 | 29.77164 | 125.10395 | 35198 ft | 511 kts | 7° |
| 2026-05-04 12:15 | 29.83824 | 125.13097 | 35185 ft | 509 kts | 7° |
| 2026-05-04 12:15 | 29.90499 | 125.15807 | 35193 ft | 508 kts | 7° |
| 2026-05-04 12:16 | 29.97170 | 125.18514 | 35193 ft | 508 kts | 7° |
| 2026-05-04 12:16 | 30.03842 | 125.21229 | 35189 ft | 508 kts | 8° |
| 2026-05-04 12:17 | 30.10503 | 125.23964 | 35190 ft | 508 kts | 8° |